Time;durP1;ratioP1;P1;durP2;ratioP2;P2;SDS_P1;SDS_P2;PMS_P1;PMS_P2;Temp;Humidity;BMP_temperature;BMP_pressure;BME280_temperature;BME280_humidity;BME280_pressure;Samples;Min_cycle;Max_cycle;Signal;HPM_P1;HPM_P2
2022/02/12 00:02:09;;;;;;;;;;;;;;;13.32;50.99;101970.25;4957216;28;20578;-82
2022/02/12 00:04:53;;;;;;;;;;;;;;;13.37;54.26;101968.25;4941160;29;19915;-84
2022/02/12 00:07:37;;;;;;;;;;;;;;;13.32;51.64;101973.81;4964082;28;19914;-82
2022/02/12 00:10:23;;;;;;;;;;;;;;;13.34;51.93;101971.59;4974958;28;19913;-83
2022/02/12 00:13:11;;;;;;;;;;;;;;;13.30;51.30;101976.03;4965014;28;20307;-83
2022/02/12 00:15:55;;;;;;;;;;;;;;;13.33;52.12;101972.69;4959797;29;19922;-82
2022/02/12 00:18:40;;;;;;;;;;;;;;;13.28;48.96;101979.06;4965591;28;19914;-83
2022/02/12 00:21:25;;;;;;;;;;;;;;;13.27;47.81;101982.91;4960552;28;20379;-82
2022/02/12 00:24:11;;;;;;;;;;;;;;;13.24;45.50;101983.53;4966618;28;19914;-83
2022/02/12 00:26:55;;;;;;;;;;;;;;;13.20;47.12;101987.97;4969153;28;19914;-82
2022/02/12 00:29:40;;;;;;;;;;;;;;;13.18;45.00;101997.56;4957778;28;19914;-82
2022/02/12 00:32:25;;;;;;;;;;;;;;;13.15;46.04;102007.19;4963084;28;19914;-83
2022/02/12 00:35:10;;;;;;;;;;;;;;;13.07;44.70;102010.56;4966699;28;19934;-83
2022/02/12 00:37:54;;;;;;;;;;;;;;;13.03;43.94;102022.38;4954931;29;19914;-82
2022/02/12 00:40:39;;;;;;;;;;;;;;;12.96;44.82;102030.13;4952985;29;19918;-81
2022/02/12 00:43:23;;;;;;;;;;;;;;;12.90;45.19;102036.81;4959851;29;20421;-82
2022/02/12 00:46:08;;;;;;;;;;;;;;;12.85;45.63;102038.50;4959321;28;19914;-83
2022/02/12 00:48:52;;;;;;;;;;;;;;;12.82;46.09;102050.03;4954352;29;19914;-82
2022/02/12 00:51:37;;;;;;;;;;;;;;;12.81;46.74;102044.84;4961127;29;19914;-83
2022/02/12 00:54:22;;;;;;;;;;;;;;;12.84;52.76;102061.47;4958883;29;19914;-82
2022/02/12 00:57:06;;;;;;;;;;;;;;;12.92;54.78;102059.16;4960042;29;19918;-83
2022/02/12 00:59:50;;;;;;;;;;;;;;;12.96;55.84;102061.00;4960197;29;19914;-83
2022/02/12 01:02:35;;;;;;;;;;;;;;;12.95;53.00;102058.56;4959975;28;19914;-84
2022/02/12 01:05:19;;;;;;;;;;;;;;;12.96;51.29;102066.44;4959778;28;19918;-83
2022/02/12 01:08:03;;;;;;;;;;;;;;;12.96;50.21;102066.44;4960516;29;19914;-83
2022/02/12 01:10:48;;;;;;;;;;;;;;;12.95;48.55;102069.50;4953280;28;19918;-82
2022/02/12 01:13:32;;;;;;;;;;;;;;;12.93;46.86;102074.44;4963832;28;19914;-86
2022/02/12 01:16:17;;;;;;;;;;;;;;;12.89;49.02;102079.69;4958759;28;20315;-83
2022/02/12 01:19:03;;;;;;;;;;;;;;;12.87;48.65;102081.88;4959702;28;19914;-82
2022/02/12 01:21:48;;;;;;;;;;;;;;;12.85;49.03;102090.38;4953051;29;20389;-83
2022/02/12 01:24:34;;;;;;;;;;;;;;;12.88;50.09;102099.09;4957277;28;19916;-82
2022/02/12 01:27:19;;;;;;;;;;;;;;;12.89;52.79;102101.53;4953398;28;19919;-82
2022/02/12 01:30:04;;;;;;;;;;;;;;;12.94;55.12;102108.81;4964459;28;19918;-83
2022/02/12 01:32:49;;;;;;;;;;;;;;;12.94;53.47;102112.38;4941109;29;20295;-83
2022/02/12 01:35:34;;;;;;;;;;;;;;;12.94;49.38;102106.09;4948271;28;19926;-83
2022/02/12 01:38:18;;;;;;;;;;;;;;;12.93;53.50;102105.28;4960595;28;19918;-83
2022/02/12 01:41:03;;;;;;;;;;;;;;;12.87;48.50;102117.38;4959993;29;19922;-82
2022/02/12 01:43:47;;;;;;;;;;;;;;;12.87;51.21;102109.19;4964795;28;19914;-84
2022/02/12 01:46:33;;;;;;;;;;;;;;;12.86;50.01;102118.47;4959986;28;19914;-82
2022/02/12 01:49:18;;;;;;;;;;;;;;;12.85;51.86;102117.66;4963356;28;20415;-83
2022/02/12 01:52:05;;;;;;;;;;;;;;;12.90;55.39;102124.19;4961317;28;19914;-83
2022/02/12 01:54:51;;;;;;;;;;;;;;;12.88;54.20;102126.38;4959160;28;19918;-82
2022/02/12 01:57:36;;;;;;;;;;;;;;;12.89;53.41;102130.75;4959471;28;19918;-83
2022/02/12 02:00:22;;;;;;;;;;;;;;;12.88;51.75;102129.94;4965019;28;19914;-83
2022/02/12 02:03:07;;;;;;;;;;;;;;;12.89;52.46;102128.84;4959262;28;19914;-83
2022/02/12 02:05:55;;;;;;;;;;;;;;;12.88;51.02;102131.84;4958349;29;19914;-84
2022/02/12 02:08:40;;;;;;;;;;;;;;;12.91;55.46;102140.25;4959964;28;19922;-83
2022/02/12 02:11:24;;;;;;;;;;;;;;;12.92;56.55;102141.88;4964353;28;19914;-84
2022/02/12 02:14:10;;;;;;;;;;;;;;;12.91;55.12;102142.16;4962401;28;19915;-84
2022/02/12 02:16:56;;;;;;;;;;;;;;;12.87;54.09;102141.94;4955226;28;19918;-84
2022/02/12 02:19:40;;;;;;;;;;;;;;;12.89;53.70;102145.22;4951188;28;19915;-83
2022/02/12 02:22:28;;;;;;;;;;;;;;;12.72;53.87;102156.63;4962389;28;19914;-83
2022/02/12 02:25:15;;;;;;;;;;;;;;;12.60;52.03;102148.06;4959835;28;19914;-82
2022/02/12 02:27:59;;;;;;;;;;;;;;;12.50;53.56;102148.19;4940164;29;19915;-83
2022/02/12 02:30:43;;;;;;;;;;;;;;;12.35;52.78;102145.66;4944987;28;19914;-82
2022/02/12 02:33:28;;;;;;;;;;;;;;;12.39;52.47;102146.72;4959152;28;19915;-82
2022/02/12 02:36:14;;;;;;;;;;;;;;;12.32;52.80;102162.63;4959880;28;19918;-83
2022/02/12 02:38:58;;;;;;;;;;;;;;;12.29;53.28;102152.31;4962360;28;19918;-83
2022/02/12 02:41:43;;;;;;;;;;;;;;;12.36;53.56;102150.84;4954638;28;19914;-83
2022/02/12 02:44:28;;;;;;;;;;;;;;;12.37;52.34;102165.28;4957377;28;19915;-83
2022/02/12 02:56:23;;;;;;;;;;;;;;;12.21;54.11;102172.84;4957551;29;20415;-83
2022/02/12 02:59:09;;;;;;;;;;;;;;;12.15;54.97;102170.44;4958758;28;19914;-83
2022/02/12 03:01:53;;;;;;;;;;;;;;;12.16;55.83;102177.53;4962952;28;19914;-82
2022/02/12 03:04:38;;;;;;;;;;;;;;;12.08;54.01;102167.28;4958668;29;19915;-83
2022/02/12 03:07:22;;;;;;;;;;;;;;;12.15;56.81;102174.00;4959836;28;19914;-82
2022/02/12 03:10:08;;;;;;;;;;;;;;;12.19;57.11;102185.16;4958248;28;19918;-82
2022/02/12 03:12:52;;;;;;;;;;;;;;;12.23;57.49;102181.56;4963037;28;20306;-83
2022/02/12 03:15:38;;;;;;;;;;;;;;;12.31;55.54;102183.63;4958280;28;20383;-83
2022/02/12 03:18:23;;;;;;;;;;;;;;;12.32;55.96;102179.81;4957065;28;19918;-83
2022/02/12 03:21:07;;;;;;;;;;;;;;;12.32;55.97;102187.16;4961790;28;20391;-82
2022/02/12 03:23:52;;;;;;;;;;;;;;;12.32;55.44;102181.72;4958478;28;19918;-83
2022/02/12 03:26:36;;;;;;;;;;;;;;;12.32;56.45;102181.72;4959565;28;20107;-82
2022/02/12 03:29:22;;;;;;;;;;;;;;;12.26;56.65;102182.88;4957879;29;20371;-83
2022/02/12 03:32:06;;;;;;;;;;;;;;;12.33;57.98;102192.34;4959856;28;19914;-82
2022/02/12 03:34:51;;;;;;;;;;;;;;;12.33;57.79;102195.06;4959593;28;19914;-81
2022/02/12 03:37:36;;;;;;;;;;;;;;;12.35;58.50;102192.84;4960596;28;19918;-81
2022/02/12 03:40:20;;;;;;;;;;;;;;;12.34;58.11;102198.63;4960604;28;19918;-82
2022/02/12 03:43:05;;;;;;;;;;;;;;;12.30;57.54;102197.53;4958381;29;19915;-83
2022/02/12 03:45:50;;;;;;;;;;;;;;;12.24;57.42;102198.72;4959320;29;20359;-82
2022/02/12 03:48:35;;;;;;;;;;;;;;;12.26;57.61;102201.97;4964477;29;20399;-83
2022/02/12 03:51:20;;;;;;;;;;;;;;;12.30;58.07;102203.00;4958740;28;19914;-83
2022/02/12 03:54:04;;;;;;;;;;;;;;;12.33;57.35;102202.44;4961104;28;19915;-83
2022/02/12 03:56:49;;;;;;;;;;;;;;;12.37;57.99;102204.28;4957613;29;19918;-82
2022/02/12 03:59:33;;;;;;;;;;;;;;;12.40;58.48;102213.78;4959973;28;19914;-83
2022/02/12 04:02:17;;;;;;;;;;;;;;;12.41;57.67;102215.44;4964345;29;19914;-84
2022/02/12 04:05:02;;;;;;;;;;;;;;;12.43;58.27;102221.41;4963974;28;19914;-82
2022/02/12 04:07:47;;;;;;;;;;;;;;;12.42;57.64;102222.50;4963478;29;19914;-83
2022/02/12 04:10:31;;;;;;;;;;;;;;;12.43;58.01;102219.50;4966702;28;19915;-82
2022/02/12 04:13:17;;;;;;;;;;;;;;;12.40;55.21;102216.53;4966472;28;20291;-83
2022/02/12 04:16:01;;;;;;;;;;;;;;;12.40;54.45;102217.34;4962919;28;20512;-82
2022/02/12 04:18:46;;;;;;;;;;;;;;;12.38;56.80;102226.94;4964089;28;19915;-82
2022/02/12 04:21:30;;;;;;;;;;;;;;;12.38;57.85;102224.22;4962220;28;19918;-82
2022/02/12 04:24:15;;;;;;;;;;;;;;;12.40;57.85;102230.16;4963625;28;19914;-82
2022/02/12 04:26:59;;;;;;;;;;;;;;;12.44;59.48;102236.69;4966635;28;19914;-82
2022/02/12 04:29:44;;;;;;;;;;;;;;;12.43;59.61;102235.06;4965602;28;20290;-83
2022/02/12 04:32:28;;;;;;;;;;;;;;;12.37;56.28;102231.56;4965850;29;19914;-82
2022/02/12 04:35:15;;;;;;;;;;;;;;;12.37;54.19;102231.56;4963054;29;19914;-82
2022/02/12 04:38:00;;;;;;;;;;;;;;;12.40;56.96;102236.44;4964298;28;19918;-81
2022/02/12 04:40:45;;;;;;;;;;;;;;;12.42;59.48;102252.53;4962638;28;19922;-82
2022/02/12 04:43:29;;;;;;;;;;;;;;;12.44;60.96;102250.34;4961863;28;20371;-81
2022/02/12 04:46:14;;;;;;;;;;;;;;;12.43;60.14;102251.44;4965469;29;19915;-82
2022/02/12 04:48:58;;;;;;;;;;;;;;;12.45;61.26;102249.22;4966302;28;19918;-81
2022/02/12 04:51:42;;;;;;;;;;;;;;;12.46;61.88;102245.38;4963088;28;19915;-82
2022/02/12 04:54:27;;;;;;;;;;;;;;;12.45;61.65;102260.13;4960373;28;20323;-81
2022/02/12 04:57:12;;;;;;;;;;;;;;;12.48;62.31;102258.75;4960926;29;19918;-81
2022/02/12 04:59:56;;;;;;;;;;;;;;;12.47;62.24;102257.94;4961065;28;19914;-81
2022/02/12 05:02:45;;;;;;;;;;;;;;;12.46;62.66;102247.28;4960801;28;19914;-82
2022/02/12 05:05:29;;;;;;;;;;;;;;;12.47;62.70;102246.19;4960085;29;19915;-81
2022/02/12 05:08:13;;;;;;;;;;;;;;;12.47;62.76;102251.66;4960616;29;19915;-81
2022/02/12 05:10:58;;;;;;;;;;;;;;;12.43;58.97;102251.44;4965476;28;19918;-81
2022/02/12 05:13:42;;;;;;;;;;;;;;;12.42;60.00;102250.63;4960361;28;20315;-82
2022/02/12 05:16:27;;;;;;;;;;;;;;;12.40;59.92;102247.34;4962326;28;19918;-81
2022/02/12 05:19:13;;;;;;;;;;;;;;;12.37;57.45;102242.50;4960276;28;19914;-81
2022/02/12 05:21:57;;;;;;;;;;;;;;;12.33;54.21;102237.91;4960012;28;19914;-82
2022/02/12 05:24:42;;;;;;;;;;;;;;;12.33;56.33;102248.81;4962031;28;19914;-81
2022/02/12 05:27:27;;;;;;;;;;;;;;;12.34;57.70;102245.00;4961152;28;19918;-81
2022/02/12 05:30:11;;;;;;;;;;;;;;;12.35;57.78;102252.88;4960868;28;19918;-82
2022/02/12 05:32:58;;;;;;;;;;;;;;;12.30;53.97;102246.66;4960620;28;19914;-81
2022/02/12 05:35:42;;;;;;;;;;;;;;;12.24;49.46;102250.56;4959920;28;19914;-82
2022/02/12 05:38:27;;;;;;;;;;;;;;;12.19;47.32;102256.06;4958737;29;19927;-82
2022/02/12 05:41:13;;;;;;;;;;;;;;;12.13;47.06;102254.47;4955007;28;19915;-82
2022/02/12 05:43:58;;;;;;;;;;;;;;;12.04;47.44;102259.72;4951003;29;19918;-81
2022/02/12 05:46:45;;;;;;;;;;;;;;;12.03;48.37;102258.13;4959655;28;19914;-82
2022/02/12 05:49:29;;;;;;;;;;;;;;;11.96;47.30;102257.63;4958171;29;19915;-81
2022/02/12 05:52:14;;;;;;;;;;;;;;;11.91;48.06;102263.94;4956280;29;19914;-81
2022/02/12 05:54:58;;;;;;;;;;;;;;;11.85;46.82;102262.34;4958727;29;19918;-82
2022/02/12 05:57:42;;;;;;;;;;;;;;;11.84;49.86;102271.63;4950372;28;19918;-82
2022/02/12 06:00:27;;;;;;;;;;;;;;;11.82;48.06;102273.84;4949426;28;19914;-81
2022/02/12 06:03:11;;;;;;;;;;;;;;;11.83;51.56;102277.38;4955929;28;19914;-81
2022/02/12 06:05:56;;;;;;;;;;;;;;;11.84;53.53;102277.06;4950590;28;19914;-82
2022/02/12 06:08:41;;;;;;;;;;;;;;;11.93;60.55;102280.84;4947924;28;19918;-82
2022/02/12 06:11:26;;;;;;;;;;;;;;;11.97;61.44;102284.63;4951679;28;19914;-82
2022/02/12 06:14:10;;;;;;;;;;;;;;;11.98;61.64;102286.25;4952682;28;20494;-82
2022/02/12 06:16:57;;;;;;;;;;;;;;;11.99;62.32;102285.13;4957717;28;19918;-82
2022/02/12 06:19:42;;;;;;;;;;;;;;;12.05;63.50;102295.97;4962797;28;19914;-80
2022/02/12 06:22:27;;;;;;;;;;;;;;;12.12;63.98;102289.09;4964571;28;19933;-82
2022/02/12 06:25:12;;;;;;;;;;;;;;;12.21;64.29;102302.94;4958456;29;19915;-81
2022/02/12 06:27:58;;;;;;;;;;;;;;;12.21;63.98;102300.19;4940490;29;19915;-82
2022/02/12 06:30:42;;;;;;;;;;;;;;;12.18;63.42;102304.34;4943208;29;20364;-82
2022/02/12 06:33:27;;;;;;;;;;;;;;;12.13;60.90;102298.09;4940461;29;19915;-82
2022/02/12 06:36:12;;;;;;;;;;;;;;;12.10;60.15;102301.38;4943340;29;19915;-81
2022/02/12 06:38:56;;;;;;;;;;;;;;;12.10;61.81;102306.84;4964130;28;19914;-81
2022/02/12 06:41:41;;;;;;;;;;;;;;;12.03;57.73;102306.38;4959352;29;19918;-82
2022/02/12 06:44:26;;;;;;;;;;;;;;;12.03;59.70;102300.94;4957271;29;19918;-83
2022/02/12 06:47:10;;;;;;;;;;;;;;;12.04;61.44;102313.47;4957302;28;19914;-81
2022/02/12 06:49:55;;;;;;;;;;;;;;;12.03;61.57;102309.09;4960162;28;19914;-80
2022/02/12 06:52:39;;;;;;;;;;;;;;;12.05;60.40;102304.16;4965619;28;19914;-81
2022/02/12 06:55:24;;;;;;;;;;;;;;;12.02;61.35;102311.00;4962733;28;19914;-80
2022/02/12 06:58:09;;;;;;;;;;;;;;;11.98;59.66;102318.97;4963052;28;19919;-81
2022/02/12 07:00:54;;;;;;;;;;;;;;;12.02;61.94;102326.56;4956792;29;19914;-82
2022/02/12 07:03:38;;;;;;;;;;;;;;;12.11;64.26;102331.09;4961096;29;20295;-81
2022/02/12 07:06:25;;;;;;;;;;;;;;;12.18;64.84;102325.34;4963008;29;19922;-81
2022/02/12 07:09:11;;;;;;;;;;;;;;;12.20;64.71;102337.56;4940935;29;19915;-81
2022/02/12 07:11:55;;;;;;;;;;;;;;;12.25;64.61;102342.16;4957797;28;20299;-80
2022/02/12 07:14:40;;;;;;;;;;;;;;;12.33;65.12;102347.00;4960258;29;19918;-81
2022/02/12 07:17:24;;;;;;;;;;;;;;;12.40;65.25;102345.56;4960928;28;19918;-82
2022/02/12 07:20:10;;;;;;;;;;;;;;;12.46;64.91;102349.06;4962821;28;20315;-81
2022/02/12 07:22:55;;;;;;;;;;;;;;;12.52;65.30;102355.28;4952514;28;19914;-81
2022/02/12 07:25:41;;;;;;;;;;;;;;;12.60;64.90;102355.47;4961167;28;19926;-81
2022/02/12 07:28:27;;;;;;;;;;;;;;;12.63;64.88;102360.38;4976746;28;19914;-83
2022/02/12 07:31:12;;;;;;;;;;;;;;;12.67;64.43;102366.88;4953180;28;19919;-80
2022/02/12 07:33:57;;;;;;;;;;;;;;;12.67;64.14;102376.97;4953525;28;19914;-80
2022/02/12 07:36:42;;;;;;;;;;;;;;;12.65;63.90;102374.50;4965394;28;19918;-80
2022/02/12 07:39:27;;;;;;;;;;;;;;;12.65;63.54;102379.97;4965087;29;19914;-82
2022/02/12 07:42:12;;;;;;;;;;;;;;;12.64;63.67;102385.75;4965813;29;19918;-81
2022/02/12 07:44:56;;;;;;;;;;;;;;;12.61;63.46;102389.84;4961561;28;20672;-78
2022/02/12 07:47:41;;;;;;;;;;;;;;;12.61;63.86;102391.75;4964172;28;19914;-81
2022/02/12 07:50:26;;;;;;;;;;;;;;;12.55;63.88;102393.72;4964447;28;19915;-80
2022/02/12 07:53:13;;;;;;;;;;;;;;;12.55;64.05;102396.44;4962032;28;19914;-80
2022/02/12 07:55:57;;;;;;;;;;;;;;;12.54;64.21;102400.31;4962925;28;19914;-81
2022/02/12 07:58:42;;;;;;;;;;;;;;;12.58;64.07;102401.34;4963662;28;19922;-81
2022/02/12 08:01:27;;;;;;;;;;;;;;;12.55;63.84;102404.63;4963198;28;19915;-80
2022/02/12 08:04:11;;;;;;;;;;;;;;;12.49;63.28;102405.81;4942446;29;19915;-79
2022/02/12 08:09:59;;;;;;;;;;;;;;;12.40;60.26;102411.03;4960845;28;19914;-81
2022/02/12 08:12:44;;;;;;;;;;;;;;;12.43;61.07;102409.66;4964454;28;19914;-85
2022/02/12 08:15:28;;;;;;;;;;;;;;;10.63;40.98;102397.44;4971551;28;19922;-82
2022/02/12 08:18:13;;;;;;;;;;;;;;;9.74;39.86;102395.22;4975914;28;19918;-81
2022/02/12 08:20:57;;;;;;;;;;;;;;;9.43;41.56;102399.72;4958723;29;19915;-81
2022/02/12 08:23:42;;;;;;;;;;;;;;;9.13;40.05;102396.88;4972027;28;19918;-84
2022/02/12 08:26:27;;;;;;;;;;;;;;;9.16;40.63;102405.31;4976723;28;19914;-83
2022/02/12 08:29:12;;;;;;;;;;;;;;;8.95;40.84;102409.00;4977218;28;19914;-83
2022/02/12 08:31:57;;;;;;;;;;;;;;;9.08;40.26;102407.72;4982837;28;19914;-82
2022/02/12 08:34:42;;;;;;;;;;;;;;;9.34;38.32;102407.56;4981056;28;19918;-83
2022/02/12 08:37:27;;;;;;;;;;;;;;;9.07;39.39;102416.94;4981516;28;19918;-82
2022/02/12 08:40:14;;;;;;;;;;;;;;;9.04;39.94;102418.25;4981625;28;19898;-82
2022/02/12 08:42:58;;;;;;;;;;;;;;;9.05;39.49;102416.38;4976035;28;19918;-80
2022/02/12 08:45:43;;;;;;;;;;;;;;;9.00;39.54;102417.16;4969798;28;19914;-81
2022/02/12 08:48:30;;;;;;;;;;;;;;;8.97;39.36;102417.69;4966036;29;19914;-80
2022/02/12 08:51:15;;;;;;;;;;;;;;;8.90;40.13;102411.66;4955740;29;19914;-80
2022/02/12 08:53:59;;;;;;;;;;;;;;;9.23;38.64;102408.59;4969344;28;19918;-80
2022/02/12 08:56:45;;;;;;;;;;;;;;;9.51;38.07;102407.34;4967013;28;19915;-80
2022/02/12 08:59:29;;;;;;;;;;;;;;;9.62;37.15;102406.31;4965668;28;19914;-80
2022/02/12 09:02:14;;;;;;;;;;;;;;;9.65;38.06;102413.13;4964367;29;19915;-80
2022/02/12 09:04:59;;;;;;;;;;;;;;;9.42;38.24;102409.78;4955060;28;20360;-79
2022/02/12 09:07:44;;;;;;;;;;;;;;;9.42;37.21;102412.47;4959201;28;19914;-80
2022/02/12 09:10:29;;;;;;;;;;;;;;;9.55;37.52;102413.09;4967701;28;19914;-80
2022/02/12 09:13:13;;;;;;;;;;;;;;;9.95;37.17;102415.91;4954406;28;19933;-80
2022/02/12 09:15:58;;;;;;;;;;;;;;;9.87;36.94;102410.97;4954327;28;19922;-80
2022/02/12 09:18:43;;;;;;;;;;;;;;;10.00;37.07;102415.91;4963272;28;19918;-79
2022/02/12 09:21:28;;;;;;;;;;;;;;;10.21;35.51;102417.56;4967653;28;19915;-80
2022/02/12 09:24:13;;;;;;;;;;;;;;;10.22;33.76;102421.94;4957939;29;19922;-79
2022/02/12 09:26:57;;;;;;;;;;;;;;;10.23;33.21;102420.03;4963917;29;19915;-79
2022/02/12 09:29:42;;;;;;;;;;;;;;;9.98;31.75;102412.63;4946421;29;20368;-79
2022/02/12 09:32:26;;;;;;;;;;;;;;;10.38;32.28;102419.22;4958832;29;19914;-79
2022/02/12 09:35:11;;;;;;;;;;;;;;;9.88;30.34;102418.06;4963950;28;20360;-80
2022/02/12 09:37:56;;;;;;;;;;;;;;;10.12;32.68;102416.44;4965359;28;19919;-80
2022/02/12 09:40:40;;;;;;;;;;;;;;;10.06;31.87;102420.25;4965049;28;19915;-80
2022/02/12 09:43:26;;;;;;;;;;;;;;;10.17;31.36;102419.22;4964337;28;19922;-80
2022/02/12 09:46:14;;;;;;;;;;;;;;;10.28;30.63;102418.13;4968088;28;19914;-80
2022/02/12 09:48:59;;;;;;;;;;;;;;;10.28;29.67;102420.84;4965059;28;19918;-80
2022/02/12 09:51:44;;;;;;;;;;;;;;;10.43;29.09;102420.03;4964174;28;19915;-80
2022/02/12 09:54:30;;;;;;;;;;;;;;;10.61;28.18;102415.97;4960717;28;19914;-79
2022/02/12 09:57:14;;;;;;;;;;;;;;;10.32;27.24;102418.41;4963476;28;19918;-79
2022/02/12 10:00:00;;;;;;;;;;;;;;;10.22;27.20;102413.78;4964223;28;19930;-79
2022/02/12 10:02:46;;;;;;;;;;;;;;;10.43;28.59;102419.22;4956972;28;19914;-79
2022/02/12 10:05:31;;;;;;;;;;;;;;;10.42;27.16;102417.56;4965894;28;19914;-79
2022/02/12 10:08:16;;;;;;;;;;;;;;;10.53;27.89;102411.88;4964882;28;19914;-79
2022/02/12 10:11:10;;;;;;;;;;;;;;;10.65;27.81;102417.03;4968817;28;20378;-79
2022/02/12 10:14:06;;;;;;;;;;;;;;;10.31;25.58;102413.25;4963982;28;19914;-79
2022/02/12 10:16:51;;;;;;;;;;;;;;;10.47;27.41;102423.00;4961945;28;19915;-79
2022/02/12 10:19:38;;;;;;;;;;;;;;;10.47;26.55;102414.84;4967699;28;19914;-79
2022/02/12 10:22:23;;;;;;;;;;;;;;;10.63;26.42;102421.94;4965260;28;19926;-79
2022/02/12 10:25:09;;;;;;;;;;;;;;;10.73;26.24;102417.28;4963951;28;20275;-79
2022/02/12 10:27:53;;;;;;;;;;;;;;;10.73;25.05;102408.31;4967885;28;19918;-79
2022/02/12 10:30:39;;;;;;;;;;;;;;;10.83;25.99;102410.19;4966302;28;19914;-79
2022/02/12 10:33:27;;;;;;;;;;;;;;;10.81;25.94;102407.78;4962392;28;19922;-80
2022/02/12 10:36:14;;;;;;;;;;;;;;;10.84;25.65;102412.66;4965764;28;19914;-79
2022/02/12 10:38:59;;;;;;;;;;;;;;;10.82;25.08;102406.66;4958197;28;19918;-80
2022/02/12 10:41:44;;;;;;;;;;;;;;;10.85;24.88;102408.84;4977137;28;19914;-79
2022/02/12 10:44:30;;;;;;;;;;;;;;;10.91;25.98;102398.75;4982759;28;19914;-80
2022/02/12 10:47:14;;;;;;;;;;;;;;;11.17;25.20;102397.59;4967920;28;19923;-79
2022/02/12 10:49:59;;;;;;;;;;;;;;;11.05;24.10;102397.91;4959797;28;19922;-80
2022/02/12 10:52:48;;;;;;;;;;;;;;;11.15;26.40;102391.59;4967550;28;20387;-81
2022/02/12 10:55:38;;;;;;;;;;;;;;;11.08;23.95;102388.34;4961151;28;19914;-80
2022/02/12 10:58:23;;;;;;;;;;;;;;;11.24;25.82;102389.13;4963883;29;19926;-79
2022/02/12 11:01:08;;;;;;;;;;;;;;;11.02;23.33;102382.09;4953973;29;19914;-82
2022/02/12 11:03:53;;;;;;;;;;;;;;;11.33;30.54;102380.09;4952220;29;19918;-83
2022/02/12 11:06:38;;;;;;;;;;;;;;;11.11;22.88;102376.94;4959478;28;19914;-83
2022/02/12 11:09:23;;;;;;;;;;;;;;;11.25;23.80;102371.69;4957819;28;20013;-83
2022/02/12 11:12:08;;;;;;;;;;;;;;;11.28;23.86;102371.94;4960552;28;19915;-83
2022/02/12 11:14:53;;;;;;;;;;;;;;;11.38;23.85;102371.06;4952709;28;19918;-83
2022/02/12 11:17:40;;;;;;;;;;;;;;;11.20;21.99;102360.81;4947381;28;19922;-82
2022/02/12 11:20:26;;;;;;;;;;;;;;;11.29;25.18;102351.78;4946674;28;20383;-83
2022/02/12 11:23:27;;;;;;;;;;;;;;;11.34;23.08;102343.59;4944079;28;19915;-83
2022/02/12 11:26:20;;;;;;;;;;;;;;;11.42;22.19;102343.03;4944815;29;20470;-83
2022/02/12 11:29:23;;;;;;;;;;;;;;;11.61;22.46;102347.81;4942891;29;19915;-82
2022/02/12 11:32:24;;;;;;;;;;;;;;;11.55;22.81;102336.13;4944799;28;19914;-82
2022/02/12 11:35:09;;;;;;;;;;;;;;;11.53;22.56;102333.66;4953775;28;19919;-82
2022/02/12 11:37:54;;;;;;;;;;;;;;;11.66;21.75;102326.78;4957865;28;19922;-84
2022/02/12 11:40:39;;;;;;;;;;;;;;;11.52;22.43;102323.06;4976672;28;19914;-83
2022/02/12 11:43:34;;;;;;;;;;;;;;;11.56;22.36;102316.78;4967522;28;19914;-83
2022/02/12 11:46:39;;;;;;;;;;;;;;;11.66;23.19;102315.06;4959659;28;20300;-84
2022/02/12 11:49:24;;;;;;;;;;;;;;;11.73;21.59;102307.44;4954730;29;19919;-84
2022/02/12 11:52:11;;;;;;;;;;;;;;;11.51;22.30;102308.63;4963155;29;20379;-83
2022/02/12 11:54:57;;;;;;;;;;;;;;;11.85;21.96;102300.50;4962503;28;19915;-83
2022/02/12 11:57:42;;;;;;;;;;;;;;;11.74;21.90;102298.97;4964757;29;19918;-83
2022/02/12 12:00:30;;;;;;;;;;;;;;;11.58;22.22;102295.50;4966198;28;19914;-83
2022/02/12 12:03:14;;;;;;;;;;;;;;;11.93;22.12;102297.19;4963486;28;20299;-83
2022/02/12 12:06:19;;;;;;;;;;;;;;;11.58;21.90;102284.59;4963494;29;19918;-84
2022/02/12 12:09:05;;;;;;;;;;;;;;;11.54;22.04;102290.91;4969742;28;19918;-83
2022/02/12 12:12:08;;;;;;;;;;;;;;;11.64;21.83;102285.38;4953271;29;19914;-83
2022/02/12 12:15:12;;;;;;;;;;;;;;;11.64;20.95;102270.94;4953807;29;19914;-82
2022/02/12 12:17:57;;;;;;;;;;;;;;;11.83;22.05;102280.91;4965471;28;19922;-81
2022/02/12 12:20:43;;;;;;;;;;;;;;;11.74;21.23;102274.44;4966879;28;19915;-83
2022/02/12 12:23:28;;;;;;;;;;;;;;;11.81;22.51;102271.38;4980362;28;19910;-83
2022/02/12 12:26:13;;;;;;;;;;;;;;;12.27;21.66;102264.41;4976704;28;19922;-81
2022/02/12 12:32:13;;;;;;;;;;;;;;;12.12;21.58;102263.75;4987147;28;19914;-82
2022/02/12 12:35:03;;;;;;;;;;;;;;;12.35;21.06;102254.78;4963948;28;19930;-81
2022/02/12 12:37:56;;;;;;;;;;;;;;;11.98;21.30;102250.81;4974535;28;19910;-82
2022/02/12 12:40:43;;;;;;;;;;;;;;;11.99;20.95;102249.69;4957884;28;19910;-82
2022/02/12 12:43:31;;;;;;;;;;;;;;;12.18;20.81;102241.59;4974923;28;19910;-82
2022/02/12 12:46:18;;;;;;;;;;;;;;;11.99;20.52;102230.59;4974707;28;19922;-82
2022/02/12 12:49:03;;;;;;;;;;;;;;;12.31;21.35;102231.91;4975795;28;19914;-82
2022/02/12 12:51:49;;;;;;;;;;;;;;;12.59;20.68;102227.50;4976680;28;19910;-82
2022/02/12 12:54:34;;;;;;;;;;;;;;;12.78;20.18;102217.44;4972623;28;19914;-82
2022/02/12 12:57:24;;;;;;;;;;;;;;;12.44;20.49;102215.66;4963013;28;19922;-82
2022/02/12 13:00:10;;;;;;;;;;;;;;;12.58;19.42;102218.50;4966554;28;19922;-82
2022/02/12 13:02:56;;;;;;;;;;;;;;;12.76;20.31;102220.44;4964945;28;19918;-81
2022/02/12 13:05:41;;;;;;;;;;;;;;;12.89;19.98;102216.19;4959850;28;20266;-82
2022/02/12 13:08:26;;;;;;;;;;;;;;;13.07;20.08;102212.66;4969258;28;19902;-82
2022/02/12 13:11:25;;;;;;;;;;;;;;;13.55;19.44;102212.50;4971444;28;19918;-82
2022/02/12 13:14:09;;;;;;;;;;;;;;;13.78;19.56;102210.75;4971053;28;19918;-81
2022/02/12 13:16:55;;;;;;;;;;;;;;;16.60;17.16;102208.09;4971978;28;19927;-82
2022/02/12 13:19:40;;;;;;;;;;;;;;;19.80;17.82;102218.41;4966968;28;20321;-81
2022/02/12 13:22:26;;;;;;;;;;;;;;;18.00;18.97;102203.03;4956306;28;19922;-82
2022/02/12 13:25:12;;;;;;;;;;;;;;;17.01;22.78;102200.25;4952304;28;19926;-82
2022/02/12 13:27:58;;;;;;;;;;;;;;;16.63;20.91;102197.25;4952263;28;19918;-82
2022/02/12 13:30:48;;;;;;;;;;;;;;;16.11;21.44;102201.72;4959196;28;19941;-81
2022/02/12 13:33:33;;;;;;;;;;;;;;;15.80;23.64;102189.94;4957342;28;19918;-83
2022/02/12 13:36:18;;;;;;;;;;;;;;;15.62;23.22;102196.47;4968351;28;19914;-80
2022/02/12 13:39:04;;;;;;;;;;;;;;;15.48;22.09;102195.69;4962222;28;19918;-82
2022/02/12 13:41:53;;;;;;;;;;;;;;;15.43;21.27;102190.34;4963267;28;19922;-82
2022/02/12 13:44:38;;;;;;;;;;;;;;;15.34;22.44;102188.31;4976467;28;19930;-83
2022/02/12 13:47:22;;;;;;;;;;;;;;;15.40;21.41;102181.59;4959162;28;19914;-82
2022/02/12 13:50:14;;;;;;;;;;;;;;;15.48;20.91;102185.53;4955713;28;19918;-81
2022/02/12 13:53:01;;;;;;;;;;;;;;;15.44;21.90;102178.25;4959433;28;19919;-80
2022/02/12 13:55:55;;;;;;;;;;;;;;;15.48;22.79;102173.75;4964791;28;19918;-81
2022/02/12 13:58:41;;;;;;;;;;;;;;;15.63;20.76;102165.19;4937331;29;19919;-83
2022/02/12 14:01:26;;;;;;;;;;;;;;;15.65;21.59;102173.88;4940893;29;19922;-82
2022/02/12 14:04:12;;;;;;;;;;;;;;;15.76;19.69;102172.50;4948510;29;20456;-80
2022/02/12 14:06:56;;;;;;;;;;;;;;;15.81;20.02;102167.69;4954516;28;19919;-81
2022/02/12 14:09:40;;;;;;;;;;;;;;;15.85;20.87;102178.06;4956614;28;19918;-82
2022/02/12 14:12:25;;;;;;;;;;;;;;;15.90;21.59;102175.97;4955382;28;19919;-79
2022/02/12 14:15:09;;;;;;;;;;;;;;;15.96;21.15;102171.16;4947788;29;19923;-80
2022/02/12 14:17:54;;;;;;;;;;;;;;;16.04;21.88;102165.72;4945454;28;19922;-81
2022/02/12 14:20:39;;;;;;;;;;;;;;;16.19;20.20;102159.81;4949517;28;19923;-82
2022/02/12 14:23:24;;;;;;;;;;;;;;;16.24;18.61;102159.66;4946670;28;19919;-82
2022/02/12 14:26:08;;;;;;;;;;;;;;;16.29;20.17;102158.69;4953253;28;19919;-79
2022/02/12 14:28:53;;;;;;;;;;;;;;;16.39;18.30;102152.91;4953757;29;19919;-79